Time;durP1;ratioP1;P1;durP2;ratioP2;P2;SDS_P1;SDS_P2;PMS_P1;PMS_P2;Temp;Humidity;BMP_temperature;BMP_pressure;BME280_temperature;BME280_humidity;BME280_pressure;Samples;Min_cycle;Max_cycle;Signal;HPM_P1;HPM_P2
2022/10/21 00:00:16;;;;;;;22.08;15.13;;;13.00;99.90;;;;;;4995564;28;20381;-73
2022/10/21 00:02:42;;;;;;;25.48;15.35;;;13.00;99.90;;;;;;4979365;28;20481;-73
2022/10/21 00:05:07;;;;;;;25.00;15.60;;;13.00;99.90;;;;;;4994902;28;20068;-73
2022/10/21 00:07:34;;;;;;;25.02;15.57;;;13.00;99.90;;;;;;4995624;28;20038;-73
2022/10/21 00:09:59;;;;;;;22.52;15.70;;;13.10;99.90;;;;;;4995808;28;20089;-73
2022/10/21 00:12:27;;;;;;;22.67;15.85;;;13.10;99.90;;;;;;4979695;28;20039;-73
2022/10/21 00:14:53;;;;;;;19.15;15.48;;;12.90;99.90;;;;;;4995047;28;20077;-73
2022/10/21 00:17:18;;;;;;;20.70;15.23;;;13.00;99.90;;;;;;4978907;28;20096;-73
2022/10/21 00:19:44;;;;;;;21.20;14.90;;;12.90;99.90;;;;;;4995525;28;20130;-73
2022/10/21 00:22:10;;;;;;;25.92;15.75;;;13.00;99.90;;;;;;4979237;28;20039;-73
2022/10/21 00:24:35;;;;;;;20.67;16.90;;;13.00;99.90;;;;;;4992692;28;20046;-73
2022/10/21 00:27:01;;;;;;;22.42;15.93;;;13.00;99.90;;;;;;4994379;28;20042;-73
2022/10/21 00:29:28;;;;;;;19.85;14.95;;;12.90;99.90;;;;;;4994596;28;20034;-73
2022/10/21 00:31:53;;;;;;;21.23;15.52;;;13.00;99.90;;;;;;4995415;28;20042;-73
2022/10/21 00:34:19;;;;;;;20.65;14.90;;;13.10;99.90;;;;;;4978532;28;20122;-73
2022/10/21 00:36:45;;;;;;;20.55;15.48;;;13.10;99.90;;;;;;4979294;28;20038;-73
2022/10/21 00:39:11;;;;;;;19.02;13.70;;;13.00;99.90;;;;;;4976898;28;20038;-73
2022/10/21 00:41:36;;;;;;;20.83;14.15;;;13.10;99.90;;;;;;4993476;28;20049;-73
2022/10/21 00:44:10;;;;;;;23.42;14.05;;;13.10;99.90;;;;;;4995426;28;20050;-73
2022/10/21 00:46:41;;;;;;;20.45;15.43;;;13.10;99.90;;;;;;4978839;28;20042;-73
2022/10/21 00:49:15;;;;;;;24.52;15.00;;;13.00;99.90;;;;;;5010413;28;20038;-73
2022/10/21 00:51:43;;;;;;;22.77;15.13;;;13.00;99.90;;;;;;5011326;28;20042;-73
2022/10/21 00:54:09;;;;;;;25.15;16.60;;;13.00;99.90;;;;;;4994354;28;20038;-73
2022/10/21 00:56:36;;;;;;;22.27;15.32;;;12.90;99.90;;;;;;4978975;28;20088;-74
2022/10/21 00:59:03;;;;;;;22.30;15.00;;;12.80;99.90;;;;;;4993832;28;20057;-73
2022/10/21 01:01:29;;;;;;;21.17;15.30;;;12.90;99.90;;;;;;4978647;28;20492;-73
2022/10/21 01:03:55;;;;;;;22.02;14.60;;;12.90;99.90;;;;;;4976815;28;21789;-73
2022/10/21 01:06:23;;;;;;;22.05;14.70;;;12.90;99.90;;;;;;5026612;28;20050;-73
2022/10/21 01:08:49;;;;;;;19.88;15.05;;;13.00;99.90;;;;;;4993922;28;20038;-72
2022/10/21 01:11:17;;;;;;;22.35;15.55;;;12.90;99.90;;;;;;4978709;28;20031;-73
2022/10/21 01:14:22;;;;;;;21.23;14.80;;;12.90;99.90;;;;;;4993909;28;20272;-73
2022/10/21 01:17:07;;;;;;;22.73;15.85;;;12.90;99.90;;;;;;4978417;28;20046;-73
2022/10/21 01:20:10;;;;;;;21.33;15.18;;;12.90;99.90;;;;;;4976088;28;20045;-73
2022/10/21 01:22:49;;;;;;;20.67;15.70;;;12.80;99.90;;;;;;4994638;28;20053;-73
2022/10/21 01:25:39;;;;;;;21.98;15.93;;;12.80;99.90;;;;;;4993519;28;20500;-73
2022/10/21 01:28:16;;;;;;;22.00;15.38;;;12.80;99.90;;;;;;4994323;28;20484;-73
2022/10/21 01:30:54;;;;;;;21.08;14.38;;;12.80;99.90;;;;;;4994354;28;20419;-73
2022/10/21 01:33:25;;;;;;;23.23;14.52;;;12.70;99.90;;;;;;4978078;28;20042;-73
2022/10/21 01:36:17;;;;;;;18.92;14.57;;;12.80;99.90;;;;;;4993448;28;20050;-73
2022/10/21 01:39:08;;;;;;;20.13;14.10;;;12.80;99.90;;;;;;4993294;28;20144;-73
2022/10/21 01:41:40;;;;;;;20.85;14.05;;;12.80;99.90;;;;;;4994354;28;20444;-73
2022/10/21 01:44:17;;;;;;;21.08;14.73;;;12.80;99.90;;;;;;4992321;28;20045;-73
2022/10/21 01:46:48;;;;;;;21.00;13.82;;;12.90;99.90;;;;;;4992737;28;20112;-73
2022/10/21 01:49:27;;;;;;;21.60;14.43;;;12.80;99.90;;;;;;4976709;28;20034;-73
2022/10/21 01:51:53;;;;;;;22.25;15.52;;;12.80;99.90;;;;;;4994013;28;20374;-73
2022/10/21 01:54:25;;;;;;;20.73;14.73;;;12.60;99.90;;;;;;4972381;28;20027;-73
2022/10/21 01:56:52;;;;;;;24.52;15.90;;;12.60;99.90;;;;;;4999993;28;20034;-73
2022/10/21 01:59:20;;;;;;;21.77;15.02;;;12.70;99.90;;;;;;4993626;28;20113;-73
2022/10/21 02:01:47;;;;;;;20.42;14.60;;;12.70;99.90;;;;;;4993702;28;20088;-73
2022/10/21 02:04:15;;;;;;;20.00;14.90;;;12.70;99.90;;;;;;4990097;28;20078;-73
2022/10/21 02:06:40;;;;;;;22.67;14.77;;;12.70;99.90;;;;;;4983734;28;20037;-73
2022/10/21 02:09:06;;;;;;;20.38;14.57;;;12.70;99.90;;;;;;4989842;28;20096;-73
2022/10/21 02:11:36;;;;;;;22.08;14.50;;;12.80;99.90;;;;;;4993030;28;20042;-73
2022/10/21 02:14:08;;;;;;;21.52;15.00;;;12.80;99.90;;;;;;4991227;28;20038;-73
2022/10/21 02:16:37;;;;;;;20.80;15.15;;;12.80;99.90;;;;;;5024427;28;20404;-73
2022/10/21 02:19:04;;;;;;;20.35;14.07;;;12.80;99.90;;;;;;4975900;28;20104;-73
2022/10/21 02:21:34;;;;;;;21.77;16.38;;;12.70;99.90;;;;;;4992894;28;20141;-73
2022/10/21 02:24:14;;;;;;;19.45;14.88;;;12.80;99.90;;;;;;4990838;28;20042;-73
2022/10/21 02:26:40;;;;;;;21.60;15.45;;;12.60;99.90;;;;;;4977099;28;20125;-73
2022/10/21 02:29:06;;;;;;;19.45;14.05;;;12.60;99.90;;;;;;5006337;28;20145;-73
2022/10/21 02:31:42;;;;;;;26.67;16.67;;;12.70;99.90;;;;;;4993109;28;20092;-72
2022/10/21 02:34:14;;;;;;;23.45;15.88;;;12.70;99.90;;;;;;4973670;28;20035;-72
2022/10/21 02:37:11;;;;;;;19.70;14.67;;;12.70;99.90;;;;;;4975077;28;20069;-73
2022/10/21 02:39:50;;;;;;;22.95;16.08;;;12.70;99.90;;;;;;4986906;28;20563;-73
2022/10/21 02:42:22;;;;;;;26.13;15.80;;;12.60;99.90;;;;;;4957480;28;20089;-73
2022/10/21 02:44:47;;;;;;;20.27;15.30;;;12.70;99.90;;;;;;4972852;28;20042;-73
2022/10/21 02:47:15;;;;;;;20.17;14.80;;;12.60;99.90;;;;;;5006437;28;20042;-73
2022/10/21 02:49:43;;;;;;;22.20;15.55;;;12.70;99.90;;;;;;4971174;28;20038;-73
2022/10/21 02:52:09;;;;;;;22.40;15.07;;;12.70;99.90;;;;;;4991378;28;20113;-74
2022/10/21 02:54:35;;;;;;;21.10;15.27;;;12.70;99.90;;;;;;4990406;28;20121;-74
2022/10/21 02:57:00;;;;;;;23.10;15.93;;;12.80;99.90;;;;;;5004131;28;20038;-73
2022/10/21 02:59:26;;;;;;;22.58;16.05;;;12.70;99.90;;;;;;4980946;28;20145;-73
2022/10/21 03:01:52;;;;;;;22.42;15.93;;;12.80;99.90;;;;;;4989601;28;20042;-72
2022/10/21 03:04:17;;;;;;;24.65;16.50;;;12.70;99.90;;;;;;4973967;28;20077;-73
2022/10/21 03:06:43;;;;;;;22.77;15.27;;;12.80;99.90;;;;;;5024109;28;20042;-72
2022/10/21 03:09:09;;;;;;;20.00;15.23;;;12.90;99.90;;;;;;5007581;28;20042;-73
2022/10/21 03:11:34;;;;;;;20.17;14.98;;;13.00;99.90;;;;;;5025272;28;20049;-73
2022/10/21 03:14:00;;;;;;;22.83;16.73;;;12.90;99.90;;;;;;4991527;28;20405;-74
2022/10/21 03:16:25;;;;;;;24.20;17.20;;;12.80;99.90;;;;;;4991843;28;20034;-73
2022/10/21 03:18:51;;;;;;;19.52;15.02;;;12.90;99.90;;;;;;4990439;28;20120;-73
2022/10/21 03:21:16;;;;;;;20.52;15.38;;;12.90;99.90;;;;;;4991041;28;20039;-72
2022/10/21 03:23:42;;;;;;;20.20;15.65;;;12.90;99.90;;;;;;4990293;28;20038;-73
2022/10/21 03:26:07;;;;;;;22.25;14.55;;;12.90;99.90;;;;;;4990943;28;20049;-73
2022/10/21 03:28:33;;;;;;;18.80;14.43;;;13.10;99.90;;;;;;4990830;28;20117;-73
2022/10/21 03:30:58;;;;;;;21.27;14.65;;;13.00;99.90;;;;;;4975799;28;20057;-73
2022/10/21 03:33:24;;;;;;;20.17;14.85;;;13.00;99.90;;;;;;4974897;28;20030;-73
2022/10/21 03:35:50;;;;;;;20.08;15.52;;;13.00;99.90;;;;;;4991525;28;20038;-73
2022/10/21 03:38:15;;;;;;;24.10;16.17;;;12.90;99.90;;;;;;4974555;28;20459;-73
2022/10/21 03:40:41;;;;;;;20.98;15.68;;;12.90;99.90;;;;;;4974005;28;20039;-73
2022/10/21 03:43:06;;;;;;;19.33;14.68;;;12.80;99.90;;;;;;5022661;28;20038;-73
2022/10/21 03:45:32;;;;;;;17.70;14.18;;;12.80;99.90;;;;;;4988967;28;20125;-73
2022/10/21 03:47:57;;;;;;;19.27;14.55;;;12.80;99.90;;;;;;4991151;28;20284;-73
2022/10/21 03:50:23;;;;;;;19.55;14.60;;;12.90;99.90;;;;;;4991559;28;20053;-73
2022/10/21 03:52:49;;;;;;;19.88;14.82;;;12.80;99.90;;;;;;4990503;28;20046;-73
2022/10/21 03:55:16;;;;;;;19.23;13.65;;;12.80;99.90;;;;;;4972960;28;20410;-72
2022/10/21 03:57:41;;;;;;;19.15;13.90;;;12.80;99.90;;;;;;4975183;28;20050;-72
2022/10/21 04:00:07;;;;;;;19.85;14.07;;;12.80;99.90;;;;;;4974196;28;20050;-73
2022/10/21 04:02:33;;;;;;;20.10;14.82;;;12.80;99.90;;;;;;4989691;28;20046;-72
2022/10/21 04:04:58;;;;;;;20.08;14.95;;;12.90;99.90;;;;;;4989767;28;20046;-72
2022/10/21 04:07:24;;;;;;;19.98;14.98;;;12.90;99.90;;;;;;4973915;28;20042;-72
2022/10/21 04:09:50;;;;;;;20.48;14.43;;;12.80;99.90;;;;;;4974638;28;20037;-73
2022/10/21 04:12:15;;;;;;;19.85;14.15;;;12.80;99.90;;;;;;5023417;28;20440;-73
2022/10/21 04:14:41;;;;;;;18.65;13.80;;;12.80;99.90;;;;;;4993510;28;20128;-72
2022/10/21 04:17:06;;;;;;;19.05;14.25;;;12.90;99.90;;;;;;4993815;28;20042;-72
2022/10/21 04:19:32;;;;;;;20.55;13.05;;;13.00;99.90;;;;;;4977564;28;20039;-72
2022/10/21 04:21:57;;;;;;;18.77;14.25;;;13.10;99.90;;;;;;4977760;28;20053;-72
2022/10/21 04:24:23;;;;;;;18.95;14.50;;;13.10;99.90;;;;;;4975096;28;20484;-72
2022/10/21 04:26:48;;;;;;;20.02;14.63;;;13.00;99.90;;;;;;4995437;28;20034;-72
2022/10/21 04:29:14;;;;;;;21.50;13.88;;;13.10;99.90;;;;;;4993063;28;20117;-72
2022/10/21 04:31:39;;;;;;;22.05;15.15;;;12.90;99.90;;;;;;4995593;28;20042;-72
2022/10/21 04:34:05;;;;;;;21.10;15.20;;;12.90;99.90;;;;;;4977472;28;20038;-73
2022/10/21 04:36:31;;;;;;;22.17;16.88;;;12.90;99.90;;;;;;4992594;28;20041;-73
2022/10/21 04:38:56;;;;;;;23.67;16.05;;;12.80;99.90;;;;;;4978662;28;20038;-72
2022/10/21 04:41:22;;;;;;;23.83;17.10;;;12.80;99.90;;;;;;4977241;28;20408;-72
2022/10/21 04:43:47;;;;;;;23.35;16.92;;;12.80;99.90;;;;;;4977732;28;20073;-72
2022/10/21 04:46:15;;;;;;;27.05;17.60;;;12.80;99.90;;;;;;4992111;28;20073;-72
2022/10/21 04:48:41;;;;;;;22.02;15.93;;;12.80;99.90;;;;;;4993561;28;20034;-72
2022/10/21 04:51:07;;;;;;;22.10;16.15;;;12.80;99.90;;;;;;4977167;28;20077;-72
2022/10/21 04:53:33;;;;;;;23.95;16.67;;;12.90;99.90;;;;;;4977369;28;20081;-72
2022/10/21 04:55:59;;;;;;;28.30;17.75;;;12.90;99.90;;;;;;4977768;28;20125;-72
2022/10/21 04:58:24;;;;;;;26.40;17.73;;;12.90;99.90;;;;;;4977664;28;20054;-73
2022/10/21 05:00:50;;;;;;;24.95;18.27;;;12.90;99.90;;;;;;4993314;28;20129;-73
2022/10/21 05:03:17;;;;;;;28.63;18.00;;;12.90;99.90;;;;;;4976163;28;20057;-73
2022/10/21 05:05:42;;;;;;;35.53;18.42;;;13.00;99.90;;;;;;4991336;28;20547;-72
2022/10/21 05:08:08;;;;;;;24.98;16.63;;;13.00;99.90;;;;;;4977446;28;20046;-72
2022/10/21 05:10:33;;;;;;;23.45;16.25;;;13.00;99.90;;;;;;4977914;28;20124;-72
2022/10/21 05:12:59;;;;;;;24.42;16.92;;;13.10;99.90;;;;;;5024426;28;20403;-72
2022/10/21 05:15:25;;;;;;;24.30;17.33;;;13.10;99.90;;;;;;5012044;28;20046;-72
2022/10/21 05:17:52;;;;;;;23.83;16.85;;;13.10;99.90;;;;;;4994228;28;20040;-72
2022/10/21 05:20:18;;;;;;;27.02;19.05;;;13.20;99.90;;;;;;4984044;28;20400;-72
2022/10/21 05:22:44;;;;;;;24.42;17.95;;;13.10;99.90;;;;;;4990881;28;20052;-72
2022/10/21 05:25:10;;;;;;;33.75;18.15;;;12.90;99.90;;;;;;4990925;28;20093;-72
2022/10/21 05:27:36;;;;;;;26.92;18.55;;;12.80;99.90;;;;;;4976976;28;20038;-72
2022/10/21 05:30:03;;;;;;;39.50;18.38;;;12.80;99.90;;;;;;4977620;28;20038;-72
2022/10/21 05:32:28;;;;;;;27.33;18.15;;;12.80;99.90;;;;;;4975896;28;20559;-72
2022/10/21 05:34:54;;;;;;;25.30;17.10;;;12.80;99.90;;;;;;4976879;28;20050;-73
2022/10/21 05:37:19;;;;;;;25.63;18.30;;;12.70;99.90;;;;;;4977467;28;20046;-72
2022/10/21 05:39:45;;;;;;;28.90;16.75;;;12.80;99.90;;;;;;4992559;28;20085;-72
2022/10/21 05:42:11;;;;;;;21.77;15.95;;;12.80;99.90;;;;;;4993416;28;20128;-72
2022/10/21 05:44:36;;;;;;;28.17;17.15;;;12.90;99.90;;;;;;4983568;28;20041;-73
2022/10/21 05:47:02;;;;;;;24.23;17.58;;;13.00;99.90;;;;;;4996837;28;20027;-72
2022/10/21 05:49:27;;;;;;;24.38;18.40;;;13.00;99.90;;;;;;4976146;28;20034;-72
2022/10/21 05:51:53;;;;;;;24.38;17.52;;;13.10;99.90;;;;;;4992118;28;20161;-72
2022/10/21 05:54:19;;;;;;;25.90;18.20;;;13.10;99.90;;;;;;4990815;28;20038;-72
2022/10/21 05:56:44;;;;;;;24.27;18.05;;;13.00;99.90;;;;;;4992151;28;20076;-72
2022/10/21 05:59:10;;;;;;;26.67;18.10;;;13.00;99.90;;;;;;4975910;28;20123;-72
2022/10/21 06:01:36;;;;;;;30.08;22.80;;;13.00;99.90;;;;;;4992941;28;20041;-72
2022/10/21 06:04:02;;;;;;;26.30;18.88;;;13.00;99.90;;;;;;4990677;28;20488;-72
2022/10/21 06:06:28;;;;;;;24.67;17.42;;;12.90;99.90;;;;;;4991584;28;20045;-72
2022/10/21 06:08:53;;;;;;;21.55;16.73;;;13.00;99.90;;;;;;4976294;28;20038;-72
2022/10/21 06:11:19;;;;;;;23.08;17.00;;;13.00;99.90;;;;;;4991099;28;20085;-72
2022/10/21 06:13:45;;;;;;;24.05;17.63;;;12.90;99.90;;;;;;4982267;28;20088;-72
2022/10/21 06:16:11;;;;;;;24.73;16.77;;;12.90;99.90;;;;;;4976216;28;20042;-72
2022/10/21 06:18:38;;;;;;;21.70;17.02;;;12.80;99.90;;;;;;4975699;28;20388;-72
2022/10/21 06:21:04;;;;;;;23.27;17.38;;;12.80;99.90;;;;;;4969273;28;20042;-72
2022/10/21 06:23:29;;;;;;;25.67;18.83;;;12.80;99.90;;;;;;4990122;28;20085;-72
2022/10/21 06:25:57;;;;;;;25.58;18.10;;;12.80;99.90;;;;;;4991320;28;20073;-73
2022/10/21 06:28:23;;;;;;;24.00;16.75;;;12.80;99.90;;;;;;4974677;28;20038;-72
2022/10/21 06:30:49;;;;;;;22.65;16.10;;;12.70;99.90;;;;;;4999057;28;20121;-72
2022/10/21 06:33:15;;;;;;;24.48;16.13;;;12.70;99.90;;;;;;5023673;28;20046;-73
2022/10/21 06:35:40;;;;;;;19.85;15.10;;;12.60;99.90;;;;;;4977169;28;20038;-72
2022/10/21 06:38:06;;;;;;;21.27;14.88;;;12.70;99.90;;;;;;4989516;28;20038;-72
2022/10/21 06:40:31;;;;;;;22.38;14.88;;;12.60;99.90;;;;;;4991350;28;20057;-72
2022/10/21 06:42:57;;;;;;;23.30;15.32;;;12.60;99.90;;;;;;4976983;28;20045;-72
2022/10/21 06:45:22;;;;;;;21.00;14.90;;;12.60;99.90;;;;;;4992159;28;20049;-72
2022/10/21 06:47:49;;;;;;;21.63;15.15;;;12.60;99.90;;;;;;4993948;28;20109;-72
2022/10/21 06:50:14;;;;;;;18.08;14.15;;;12.60;99.90;;;;;;4989603;28;20084;-73
2022/10/21 06:52:40;;;;;;;20.02;14.55;;;12.50;99.90;;;;;;4985367;28;20030;-72
2022/10/21 06:55:06;;;;;;;21.58;15.15;;;12.50;99.90;;;;;;5025108;28;20049;-72
2022/10/21 06:57:32;;;;;;;22.95;15.82;;;12.50;99.90;;;;;;5025425;28;20564;-72
2022/10/21 06:59:58;;;;;;;20.48;14.07;;;12.50;99.90;;;;;;5009067;28;20082;-72
2022/10/21 07:02:24;;;;;;;20.00;14.63;;;12.40;99.90;;;;;;5008943;28;20131;-72
2022/10/21 07:04:51;;;;;;;20.33;14.60;;;12.40;99.90;;;;;;4992614;28;20160;-72
2022/10/21 07:07:17;;;;;;;20.48;14.60;;;12.50;99.90;;;;;;4992687;28;20053;-72
2022/10/21 07:09:43;;;;;;;21.55;15.25;;;12.50;99.90;;;;;;4992938;28;20046;-72
2022/10/21 07:12:09;;;;;;;20.10;14.50;;;12.50;99.90;;;;;;5008990;28;20053;-72
2022/10/21 07:14:35;;;;;;;20.15;14.27;;;12.60;99.90;;;;;;5025611;28;20121;-72
2022/10/21 07:17:00;;;;;;;22.17;15.27;;;12.60;99.90;;;;;;4976681;28;20038;-72
2022/10/21 07:19:26;;;;;;;19.83;14.27;;;12.60;99.90;;;;;;4991577;28;20042;-72
2022/10/21 07:21:51;;;;;;;21.10;14.57;;;12.70;99.90;;;;;;4992490;28;20046;-72
2022/10/21 07:24:17;;;;;;;18.50;13.20;;;12.70;99.90;;;;;;4992378;28;20041;-72
2022/10/21 07:26:42;;;;;;;21.13;14.88;;;12.80;99.90;;;;;;4976251;28;20121;-72
2022/10/21 07:29:08;;;;;;;19.02;13.85;;;12.90;99.90;;;;;;4992418;28;20034;-72
2022/10/21 07:31:36;;;;;;;20.98;14.48;;;12.80;99.90;;;;;;4976275;28;20069;-72
2022/10/21 07:34:04;;;;;;;21.08;14.98;;;12.70;99.90;;;;;;4992676;28;20046;-72
2022/10/21 07:36:34;;;;;;;20.10;13.88;;;12.80;99.90;;;;;;4976486;28;20038;-71
2022/10/21 07:39:04;;;;;;;20.83;14.05;;;12.80;99.90;;;;;;4973361;28;20046;-72
2022/10/21 07:41:34;;;;;;;21.67;14.55;;;13.00;99.90;;;;;;4991091;28;20484;-72
2022/10/21 07:44:01;;;;;;;23.15;14.15;;;13.10;99.90;;;;;;4975351;28;20046;-72
2022/10/21 07:46:27;;;;;;;22.75;14.85;;;13.30;99.90;;;;;;4992251;28;20496;-72
2022/10/21 07:48:52;;;;;;;21.85;14.57;;;13.30;99.90;;;;;;4977428;28;20092;-72
2022/10/21 07:51:23;;;;;;;20.58;14.80;;;13.30;99.90;;;;;;4978528;28;20530;-72
2022/10/21 07:53:50;;;;;;;18.67;14.40;;;13.30;99.90;;;;;;4995550;28;20596;-72
2022/10/21 07:56:21;;;;;;;20.58;13.75;;;13.40;99.90;;;;;;4996046;28;20054;-72
2022/10/21 07:58:47;;;;;;;20.55;14.18;;;13.60;99.90;;;;;;4995895;28;20054;-72
2022/10/21 08:01:14;;;;;;;20.17;14.52;;;13.60;99.90;;;;;;4996463;28;20093;-72
2022/10/21 08:03:40;;;;;;;20.35;13.85;;;13.70;99.90;;;;;;4994234;28;20038;-72
2022/10/21 08:06:08;;;;;;;21.02;15.00;;;13.80;99.90;;;;;;4979757;28;20046;-72
2022/10/21 08:08:34;;;;;;;19.75;13.32;;;13.80;99.90;;;;;;4979851;28;20038;-72
2022/10/21 08:11:00;;;;;;;21.48;13.90;;;13.90;99.90;;;;;;4978811;28;20041;-72
2022/10/21 08:13:26;;;;;;;23.25;14.15;;;14.00;99.90;;;;;;4975938;28;20523;-72
2022/10/21 08:15:53;;;;;;;19.13;13.50;;;14.00;99.90;;;;;;4979342;28;20038;-72
2022/10/21 08:18:20;;;;;;;21.00;13.55;;;14.00;99.90;;;;;;4993818;28;20031;-72
2022/10/21 08:20:47;;;;;;;18.23;13.25;;;14.10;99.90;;;;;;4978701;28;20084;-72
2022/10/21 08:23:16;;;;;;;17.83;12.68;;;14.20;99.90;;;;;;4979212;28;20497;-72
2022/10/21 08:25:49;;;;;;;17.00;12.68;;;14.30;99.90;;;;;;4995565;28;20038;-72
2022/10/21 08:28:15;;;;;;;22.42;13.18;;;14.40;99.90;;;;;;4978320;28;20074;-72
2022/10/21 08:30:41;;;;;;;22.55;13.60;;;14.50;99.90;;;;;;4995476;28;20125;-72
2022/10/21 08:33:07;;;;;;;21.05;13.63;;;14.50;99.90;;;;;;4995351;28;20043;-72
2022/10/21 08:35:33;;;;;;;20.23;13.98;;;14.60;99.90;;;;;;4995307;28;20046;-72
2022/10/21 08:37:58;;;;;;;18.13;12.68;;;14.60;99.90;;;;;;4992993;28;20038;-72
2022/10/21 08:40:24;;;;;;;20.45;13.25;;;14.60;99.90;;;;;;4994435;28;20459;-72
2022/10/21 08:42:50;;;;;;;18.73;13.10;;;14.80;99.90;;;;;;4977526;28;20038;-72
2022/10/21 08:45:26;;;;;;;22.20;12.68;;;14.90;99.90;;;;;;4976589;28;20096;-72
2022/10/21 08:47:57;;;;;;;19.90;12.65;;;14.80;99.90;;;;;;5015073;28;20042;-72
2022/10/21 08:50:35;;;;;;;16.95;12.52;;;15.00;99.90;;;;;;4992611;28;20523;-72
2022/10/21 08:53:22;;;;;;;20.13;13.05;;;15.00;99.90;;;;;;5009752;28;20034;-83
2022/10/21 08:55:48;;;;;;;18.38;12.43;;;15.00;99.90;;;;;;5026904;28;20122;-84
2022/10/21 08:58:18;;;;;;;16.98;11.68;;;15.10;99.90;;;;;;4995027;28;20063;-70
2022/10/21 09:00:55;;;;;;;19.88;13.00;;;15.10;99.90;;;;;;4991890;28;20042;-72
2022/10/21 09:04:05;;;;;;;18.00;11.95;;;15.40;99.90;;;;;;4993567;28;20049;-72
2022/10/21 09:06:59;;;;;;;17.52;12.35;;;15.40;99.90;;;;;;4973263;28;20058;-72
2022/10/21 09:09:33;;;;;;;16.90;11.20;;;15.40;99.90;;;;;;4975276;28;20042;-72
2022/10/21 09:12:18;;;;;;;17.98;12.68;;;15.50;99.90;;;;;;4975311;28;20045;-72
2022/10/21 09:15:21;;;;;;;36.85;16.50;;;15.60;99.90;;;;;;4975089;28;20050;-72
2022/10/21 09:17:50;;;;;;;18.48;12.63;;;15.50;99.90;;;;;;4975152;28;20043;-73
2022/10/21 09:20:40;;;;;;;20.10;12.40;;;15.60;99.90;;;;;;4992989;28;20038;-73
2022/10/21 09:23:34;;;;;;;16.90;11.27;;;15.60;99.90;;;;;;4978597;28;20489;-73
2022/10/21 09:26:11;;;;;;;17.13;11.20;;;15.60;99.90;;;;;;4978170;28;20074;-73
2022/10/21 09:28:36;;;;;;;17.85;11.15;;;15.60;99.90;;;;;;4978235;28;20044;-73
2022/10/21 09:31:10;;;;;;;18.20;11.35;;;15.60;99.90;;;;;;4978473;28;20121;-73
2022/10/21 09:33:36;;;;;;;16.60;10.88;;;15.60;99.90;;;;;;4994480;28;20077;-73
2022/10/21 09:36:07;;;;;;;17.83;11.10;;;15.60;99.90;;;;;;4978113;28;20084;-73
2022/10/21 09:38:35;;;;;;;18.65;11.23;;;15.60;99.90;;;;;;4978024;28;20045;-73
2022/10/21 09:41:04;;;;;;;16.55;11.43;;;15.60;99.90;;;;;;4993213;28;20046;-73
2022/10/21 09:43:30;;;;;;;15.30;10.50;;;15.70;99.90;;;;;;4993270;28;20050;-73
2022/10/21 09:45:56;;;;;;;15.07;10.25;;;15.70;99.90;;;;;;4977750;28;20049;-73
2022/10/21 09:48:25;;;;;;;18.17;11.95;;;15.70;99.90;;;;;;4994290;28;20396;-73
2022/10/21 09:50:58;;;;;;;22.67;12.13;;;15.70;99.90;;;;;;4977730;28;20044;-73
2022/10/21 09:53:36;;;;;;;16.98;10.82;;;15.70;99.90;;;;;;4994110;28;20034;-73
2022/10/21 09:56:08;;;;;;;19.23;11.45;;;15.70;99.90;;;;;;4978004;28;20047;-73
2022/10/21 09:58:37;;;;;;;21.40;10.95;;;15.70;99.90;;;;;;4993624;28;20583;-73
2022/10/21 10:01:06;;;;;;;18.20;10.90;;;15.70;99.90;;;;;;4993723;28;20504;-73
2022/10/21 10:03:44;;;;;;;18.23;10.77;;;15.90;99.90;;;;;;4975394;28;20042;-75
2022/10/21 10:06:11;;;;;;;16.02;10.93;;;16.00;99.90;;;;;;5009028;28;20516;-75
2022/10/21 10:08:39;;;;;;;19.10;11.30;;;16.10;99.90;;;;;;4974933;28;20041;-73
2022/10/21 10:11:07;;;;;;;14.90;11.10;;;16.10;99.90;;;;;;5006653;28;20564;-73
2022/10/21 10:13:38;;;;;;;19.70;11.75;;;16.20;99.90;;;;;;4990239;28;20049;-73
2022/10/21 10:16:15;;;;;;;16.42;10.95;;;16.20;99.90;;;;;;4972744;28;20562;-73
2022/10/21 10:18:42;;;;;;;14.57;10.88;;;16.20;99.90;;;;;;4968464;28;20042;-73
2022/10/21 10:21:13;;;;;;;17.15;10.32;;;16.20;99.90;;;;;;4972621;28;20501;-73
2022/10/21 10:23:55;;;;;;;19.27;10.03;;;16.10;99.90;;;;;;4975005;28;20066;-73
2022/10/21 10:26:31;;;;;;;16.02;9.88;;;16.00;99.90;;;;;;4992056;28;20077;-73
2022/10/21 10:29:18;;;;;;;16.20;10.50;;;16.00;99.90;;;;;;4991649;28;20034;-73
2022/10/21 10:31:49;;;;;;;16.25;10.00;;;16.10;99.90;;;;;;4973120;28;20106;-73
2022/10/21 10:34:20;;;;;;;15.45;10.75;;;16.00;99.90;;;;;;4993115;28;20053;-73
2022/10/21 10:36:47;;;;;;;17.38;10.45;;;16.00;99.90;;;;;;4992240;28;20034;-73
2022/10/21 10:39:24;;;;;;;16.38;10.68;;;16.00;99.90;;;;;;4972471;28;20042;-73
2022/10/21 10:41:51;;;;;;;15.02;10.88;;;16.00;99.90;;;;;;4976970;28;20049;-73
2022/10/21 10:44:37;;;;;;;16.63;10.57;;;16.00;99.90;;;;;;4990696;28;20133;-73
2022/10/21 10:47:05;;;;;;;15.93;10.35;;;16.10;99.90;;;;;;4973440;28;20046;-73
2022/10/21 10:49:40;;;;;;;13.98;9.73;;;16.10;99.90;;;;;;4957708;28;20432;-73
2022/10/21 10:52:09;;;;;;;15.02;9.90;;;16.10;99.90;;;;;;4990978;28;20038;-73
2022/10/21 10:54:35;;;;;;;16.63;10.70;;;16.10;99.90;;;;;;4979467;28;20089;-73
2022/10/21 10:57:17;;;;;;;17.38;10.45;;;16.10;99.90;;;;;;5005307;28;20088;-73
2022/10/21 10:59:48;;;;;;;18.45;11.05;;;16.10;99.90;;;;;;4963863;28;20441;-73
2022/10/21 11:02:51;;;;;;;15.07;9.90;;;16.20;99.90;;;;;;4973241;28;20050;-73
2022/10/21 11:05:45;;;;;;;13.10;9.48;;;16.20;99.90;;;;;;4973748;28;20152;-73
2022/10/21 11:08:31;;;;;;;15.98;8.98;;;16.20;99.90;;;;;;4993777;28;20050;-73
2022/10/21 11:11:00;;;;;;;14.93;8.80;;;16.20;99.90;;;;;;4995002;28;20128;-73
2022/10/21 11:13:27;;;;;;;15.18;9.63;;;16.30;99.90;;;;;;5009073;28;20117;-76
2022/10/21 11:16:00;;;;;;;14.90;9.73;;;16.20;99.90;;;;;;5006629;28;20038;-73
2022/10/21 11:18:43;;;;;;;14.93;9.30;;;16.20;99.90;;;;;;5006668;28;20121;-73
2022/10/21 11:21:21;;;;;;;14.38;8.73;;;16.20;99.90;;;;;;4990714;28;20050;-73
2022/10/21 11:24:04;;;;;;;13.18;8.43;;;16.20;99.90;;;;;;5006052;28;20045;-73
2022/10/21 11:26:58;;;;;;;14.75;8.90;;;16.30;99.90;;;;;;5008365;28;20046;-73
2022/10/21 11:29:58;;;;;;;16.48;9.20;;;16.30;99.90;;;;;;4989761;28;20531;-73
2022/10/21 11:32:42;;;;;;;17.10;9.40;;;16.30;99.90;;;;;;4999250;28;20039;-73
2022/10/21 11:35:21;;;;;;;15.80;9.75;;;16.40;99.90;;;;;;4976815;28;20047;-73
2022/10/21 11:37:58;;;;;;;15.30;9.88;;;16.30;99.90;;;;;;4984162;28;20515;-73
2022/10/21 11:40:31;;;;;;;14.75;8.43;;;16.30;99.90;;;;;;5020738;28;20034;-73
2022/10/21 11:43:11;;;;;;;16.60;8.85;;;16.30;99.90;;;;;;5010114;28;20039;-73
2022/10/21 11:46:04;;;;;;;15.40;9.20;;;16.30;99.90;;;;;;4970742;28;20501;-73
2022/10/21 11:48:42;;;;;;;12.93;8.13;;;16.30;99.90;;;;;;4975159;28;20035;-73
2022/10/21 11:51:14;;;;;;;13.15;8.52;;;16.40;99.90;;;;;;5007189;28;20042;-73
2022/10/21 11:53:46;;;;;;;15.13;8.88;;;16.30;99.90;;;;;;4972749;28;20031;-73
2022/10/21 11:56:42;;;;;;;12.73;8.07;;;16.30;99.90;;;;;;4974957;28;20053;-77
2022/10/21 11:59:38;;;;;;;18.08;8.82;;;16.30;99.90;;;;;;4972466;28;20051;-73
2022/10/21 12:02:16;;;;;;;14.00;8.40;;;16.30;99.90;;;;;;4995785;28;20460;-73
2022/10/21 12:04:50;;;;;;;14.05;8.18;;;16.30;99.90;;;;;;4988393;28;20125;-74
2022/10/21 12:07:41;;;;;;;16.08;8.27;;;16.20;99.90;;;;;;4975703;28;20448;-74
2022/10/21 12:10:20;;;;;;;15.70;8.10;;;16.30;99.90;;;;;;4974153;28;20074;-74
2022/10/21 12:12:48;;;;;;;13.10;8.32;;;16.30;99.90;;;;;;4989710;28;20312;-74
2022/10/21 12:15:24;;;;;;;17.10;8.68;;;16.30;99.90;;;;;;5007852;28;20463;-73
2022/10/21 12:17:50;;;;;;;12.80;8.80;;;16.30;99.90;;;;;;5008313;28;20053;-74
2022/10/21 12:20:26;;;;;;;14.77;8.50;;;16.40;99.90;;;;;;4975413;28;20042;-74
2022/10/21 12:23:01;;;;;;;17.77;9.68;;;16.40;99.90;;;;;;4975379;28;20048;-74
2022/10/21 12:25:46;;;;;;;15.93;9.00;;;16.50;99.90;;;;;;5005563;28;20077;-74
2022/10/21 12:28:39;;;;;;;14.77;9.27;;;16.50;99.90;;;;;;4983073;28;20401;-74
2022/10/21 12:31:33;;;;;;;12.07;8.32;;;16.40;99.90;;;;;;4990615;28;20496;-73
2022/10/21 12:34:01;;;;;;;16.13;10.10;;;16.40;99.90;;;;;;4975135;28;20046;-74
2022/10/21 12:36:37;;;;;;;15.55;9.05;;;16.40;99.90;;;;;;4977848;28;20511;-74
2022/10/21 12:39:08;;;;;;;16.63;9.05;;;16.40;99.90;;;;;;4994093;28;20099;-74
2022/10/21 12:41:38;;;;;;;16.25;8.20;;;16.40;99.90;;;;;;4993338;28;20049;-73
2022/10/21 12:44:25;;;;;;;15.02;7.68;;;16.40;99.90;;;;;;4995243;28;20054;-73